createdAt,value
2017-07-18T00:00:32.549Z,56.70
2017-07-18T00:02:59.996Z,56.70
2017-07-18T00:05:27.542Z,57.40
2017-07-18T00:07:54.985Z,56.60
2017-07-18T00:10:22.426Z,56.60
2017-07-18T00:12:49.969Z,56.60
2017-07-18T00:15:17.425Z,56.90
2017-07-18T00:17:45.645Z,56.80
2017-07-18T00:20:13.082Z,56.80
2017-07-18T00:22:40.525Z,57.20
2017-07-18T00:25:07.985Z,57.00
2017-07-18T00:27:35.402Z,57.10
2017-07-18T00:30:02.889Z,57.20
2017-07-18T00:32:30.317Z,57.30
2017-07-18T00:34:57.748Z,57.20
2017-07-18T00:37:25.214Z,57.30
2017-07-18T00:39:52.649Z,57.40
2017-07-18T00:42:20.081Z,57.40
2017-07-18T00:44:47.544Z,57.50
2017-07-18T00:47:14.984Z,57.60
2017-07-18T00:49:42.423Z,57.50
2017-07-18T00:52:09.854Z,57.50
2017-07-18T00:54:37.293Z,57.40
2017-07-18T00:57:04.725Z,57.50
2017-07-18T00:59:32.172Z,57.80
2017-07-18T01:01:59.616Z,58.20
2017-07-18T01:04:27.046Z,58.10
2017-07-18T01:06:54.480Z,58.10
2017-07-18T01:09:21.906Z,58.10
2017-07-18T01:11:49.356Z,58.00
2017-07-18T01:14:16.789Z,58.10
2017-07-18T01:16:44.353Z,58.10
2017-07-18T01:19:11.786Z,57.90
2017-07-18T01:21:39.290Z,58.00
2017-07-18T01:24:06.731Z,58.00
2017-07-18T01:26:34.153Z,58.10
2017-07-18T01:29:01.585Z,58.10
2017-07-18T01:31:29.020Z,58.10
2017-07-18T01:33:56.444Z,58.20
2017-07-18T01:36:23.881Z,58.10
2017-07-18T01:38:51.310Z,58.10
2017-07-18T01:41:19.511Z,58.30
2017-07-18T01:43:46.957Z,58.20
2017-07-18T01:46:14.384Z,58.40
2017-07-18T01:48:41.874Z,58.60
2017-07-18T01:51:10.073Z,59.20
2017-07-18T01:53:37.515Z,59.10
2017-07-18T01:56:05.002Z,59.40
2017-07-18T01:58:32.438Z,59.40
2017-07-18T02:00:59.877Z,59.60
2017-07-18T02:03:27.309Z,59.60
2017-07-18T02:05:54.740Z,59.70
2017-07-18T02:08:22.177Z,59.70
2017-07-18T02:10:49.621Z,59.60
2017-07-18T02:13:17.051Z,59.60
2017-07-18T02:15:44.485Z,59.70
2017-07-18T02:18:12.017Z,59.90
2017-07-18T02:20:39.521Z,60.00
2017-07-18T02:23:06.964Z,60.20
2017-07-18T02:25:34.395Z,60.10
2017-07-18T02:28:01.834Z,60.20
2017-07-18T02:30:29.369Z,60.10
2017-07-18T02:32:56.800Z,60.40
2017-07-18T02:35:24.233Z,60.50
2017-07-18T02:37:51.669Z,60.90
2017-07-18T02:40:19.109Z,61.20
2017-07-18T02:42:46.550Z,61.40
2017-07-18T02:45:14.049Z,61.50
2017-07-18T02:47:41.486Z,61.30
2017-07-18T02:50:08.937Z,61.40
2017-07-18T02:52:36.370Z,61.40
2017-07-18T02:55:03.809Z,61.50
2017-07-18T02:57:31.233Z,61.50
2017-07-18T02:59:58.677Z,61.40
2017-07-18T03:02:26.226Z,61.30
2017-07-18T03:04:53.706Z,61.10
2017-07-18T03:07:21.206Z,61.30
2017-07-18T03:09:48.620Z,61.10
2017-07-18T03:12:16.059Z,60.90
2017-07-18T03:14:43.550Z,61.00
2017-07-18T03:17:10.972Z,61.20
2017-07-18T03:19:38.417Z,61.30
2017-07-18T03:22:05.845Z,61.30
2017-07-18T03:24:35.088Z,61.30
2017-07-18T03:27:03.288Z,61.70
2017-07-18T03:29:32.203Z,61.60
2017-07-18T03:31:59.874Z,61.70
2017-07-18T03:34:27.297Z,61.80
2017-07-18T03:36:54.736Z,61.70
2017-07-18T03:39:22.178Z,61.50
2017-07-18T03:41:49.608Z,61.60
2017-07-18T03:44:17.068Z,61.20
2017-07-18T03:46:44.676Z,61.10
2017-07-18T03:49:12.133Z,61.00
2017-07-18T03:51:39.618Z,61.00
2017-07-18T03:54:07.054Z,60.90
2017-07-18T03:56:34.481Z,60.80
2017-07-18T03:59:01.919Z,61.10
2017-07-18T04:01:29.352Z,60.80
2017-07-18T04:03:56.829Z,60.90
2017-07-18T04:06:25.039Z,60.10
2017-07-18T04:08:52.469Z,60.50
2017-07-18T04:11:19.891Z,60.50
2017-07-18T04:13:47.408Z,60.50
2017-07-18T04:16:14.862Z,60.10
2017-07-18T04:18:42.293Z,60.10
2017-07-18T04:21:09.725Z,60.10
2017-07-18T04:23:37.222Z,60.00
2017-07-18T04:26:05.446Z,59.70
2017-07-18T04:28:32.877Z,59.70
2017-07-18T04:31:00.333Z,59.90
2017-07-18T04:33:27.764Z,59.60
2017-07-18T04:35:55.213Z,59.80
2017-07-18T04:38:22.649Z,59.70
2017-07-18T04:40:50.079Z,59.50
2017-07-18T04:43:17.519Z,59.60
2017-07-18T04:45:45.050Z,59.60
2017-07-18T04:48:13.266Z,59.50
2017-07-18T04:50:40.709Z,59.50
2017-07-18T04:53:08.156Z,59.30
2017-07-18T04:55:35.600Z,59.50
2017-07-18T04:58:03.045Z,59.40
2017-07-18T05:00:30.506Z,59.10
2017-07-18T05:02:58.761Z,58.80
2017-07-18T05:05:26.286Z,58.70
2017-07-18T05:07:53.790Z,58.90
2017-07-18T05:10:21.581Z,58.70
2017-07-18T05:12:49.163Z,58.80
2017-07-18T05:15:17.420Z,58.10
2017-07-18T05:17:45.634Z,58.20
2017-07-18T05:20:13.118Z,58.20
2017-07-18T05:22:41.324Z,57.20
2017-07-18T05:25:08.799Z,57.20
2017-07-18T05:27:36.261Z,56.30
2017-07-18T05:30:03.687Z,55.60
2017-07-18T05:32:31.133Z,54.80
2017-07-18T05:34:58.575Z,53.70
2017-07-18T05:37:26.021Z,52.70
2017-07-18T05:39:53.534Z,51.90
2017-07-18T05:42:20.945Z,50.60
2017-07-18T05:44:48.410Z,49.60
2017-07-18T05:47:15.858Z,48.50
2017-07-18T05:49:43.317Z,47.30
2017-07-18T05:52:10.747Z,47.00
2017-07-18T05:54:38.230Z,46.60
2017-07-18T05:57:05.678Z,45.70
2017-07-18T05:59:33.116Z,45.50
2017-07-18T06:02:00.577Z,44.20
2017-07-18T06:04:28.192Z,43.40
2017-07-18T06:06:55.698Z,43.30
2017-07-18T06:09:23.139Z,42.20
2017-07-18T06:11:50.624Z,41.70
2017-07-18T06:14:18.173Z,40.90
2017-07-18T06:16:45.617Z,40.00
2017-07-18T06:19:13.171Z,39.00
2017-07-18T06:21:40.702Z,38.30
2017-07-18T06:24:08.154Z,37.60
2017-07-18T06:26:36.420Z,36.50
2017-07-18T06:29:03.859Z,36.40
2017-07-18T06:31:31.395Z,35.60
2017-07-18T06:33:58.880Z,35.90
2017-07-18T06:36:26.335Z,35.60
2017-07-18T06:38:53.770Z,35.20
2017-07-18T06:41:21.221Z,35.00
2017-07-18T06:43:48.669Z,34.50
2017-07-18T06:46:16.099Z,34.90
2017-07-18T06:48:43.574Z,34.40
2017-07-18T06:51:11.014Z,34.10
2017-07-18T06:53:38.461Z,33.70
2017-07-18T06:56:05.895Z,34.20
2017-07-18T06:58:33.332Z,33.70
2017-07-18T07:01:00.778Z,34.50
2017-07-18T07:03:28.214Z,33.60
2017-07-18T07:05:55.644Z,32.80
2017-07-18T07:08:23.083Z,32.70
2017-07-18T07:10:50.535Z,31.80
2017-07-18T07:13:17.969Z,31.80
2017-07-18T07:15:45.392Z,30.00
2017-07-18T07:18:13.602Z,29.40
2017-07-18T07:20:41.141Z,29.40
2017-07-18T07:23:08.613Z,29.60
2017-07-18T07:25:36.052Z,29.50
2017-07-18T07:28:03.496Z,29.60
2017-07-18T07:30:30.929Z,29.60
2017-07-18T07:32:58.407Z,28.80
2017-07-18T07:35:26.639Z,29.70
2017-07-18T07:37:54.076Z,29.70
2017-07-18T07:40:21.516Z,29.70
2017-07-18T07:42:48.958Z,29.60
2017-07-18T07:45:16.391Z,29.90
2017-07-18T07:47:43.815Z,30.00
2017-07-18T07:50:11.317Z,29.50
2017-07-18T07:52:38.724Z,29.10
2017-07-18T07:55:06.196Z,29.10
2017-07-18T07:57:33.615Z,28.50
2017-07-18T08:00:01.041Z,28.40
2017-07-18T08:02:28.496Z,27.60
2017-07-18T08:04:56.024Z,27.20
2017-07-18T08:07:23.457Z,27.10
2017-07-18T08:09:50.886Z,27.20
2017-07-18T08:12:18.345Z,27.00
2017-07-18T08:14:45.789Z,26.90
2017-07-18T08:17:13.221Z,27.40
2017-07-18T08:19:40.661Z,27.40
2017-07-18T08:22:08.107Z,27.50
2017-07-18T08:24:35.535Z,27.80
2017-07-18T08:27:02.966Z,28.40
2017-07-18T08:29:30.411Z,27.70
2017-07-18T08:31:57.836Z,27.80
2017-07-18T08:34:25.268Z,27.80
2017-07-18T08:36:52.701Z,27.80
2017-07-18T08:39:20.127Z,27.10
2017-07-18T08:41:47.571Z,27.30
2017-07-18T08:44:15.009Z,27.30
2017-07-18T08:46:42.460Z,26.70
2017-07-18T08:49:09.889Z,27.40
2017-07-18T08:51:37.367Z,26.90
2017-07-18T08:54:04.798Z,26.90
2017-07-18T08:56:32.244Z,26.90
2017-07-18T08:58:59.713Z,25.90
2017-07-18T09:01:27.141Z,26.10
2017-07-18T09:03:54.585Z,25.60
2017-07-18T09:06:22.013Z,25.70
2017-07-18T09:08:49.471Z,26.10
2017-07-18T09:11:17.670Z,26.30
2017-07-18T09:13:45.111Z,26.20
2017-07-18T09:16:12.548Z,26.20
2017-07-18T09:18:39.998Z,26.30
2017-07-18T09:21:07.423Z,26.00
2017-07-18T09:23:34.849Z,26.30
2017-07-18T09:26:03.058Z,26.80
2017-07-18T09:28:30.516Z,26.80
2017-07-18T09:30:57.959Z,26.20
2017-07-18T09:33:25.384Z,26.30
2017-07-18T09:35:52.812Z,27.10
2017-07-18T09:38:20.247Z,26.80
2017-07-18T09:40:47.690Z,26.10
2017-07-18T09:43:15.130Z,26.10
2017-07-18T09:45:42.581Z,25.90
2017-07-18T09:48:10.052Z,25.60
2017-07-18T09:50:37.485Z,25.40
2017-07-18T09:53:04.928Z,25.70
2017-07-18T09:55:32.364Z,25.70
2017-07-18T09:57:59.905Z,25.40
2017-07-18T10:00:27.341Z,25.20
2017-07-18T10:02:54.773Z,24.50
2017-07-18T10:05:23.369Z,25.40
2017-07-18T10:07:50.789Z,25.30
2017-07-18T10:10:18.305Z,25.10
2017-07-18T10:12:46.503Z,25.00
2017-07-18T10:15:13.936Z,24.50
2017-07-18T10:17:41.380Z,24.30
2017-07-18T10:20:08.812Z,24.20
2017-07-18T10:22:36.252Z,23.60
2017-07-18T10:25:03.689Z,24.40
2017-07-18T10:27:31.878Z,24.10
2017-07-18T10:29:59.313Z,23.50
2017-07-18T10:32:26.741Z,24.30
2017-07-18T10:34:54.215Z,24.20
2017-07-18T10:37:21.661Z,24.60
2017-07-18T10:39:49.105Z,24.20
2017-07-18T10:42:16.536Z,24.40
2017-07-18T10:44:43.985Z,24.90
2017-07-18T10:47:11.414Z,24.90
2017-07-18T10:49:38.836Z,24.80
2017-07-18T10:52:06.286Z,24.60
2017-07-18T10:54:33.705Z,24.80
2017-07-18T10:57:01.927Z,25.20
2017-07-18T10:59:29.363Z,25.20
2017-07-18T11:01:56.821Z,26.10
2017-07-18T11:04:24.250Z,27.10
2017-07-18T11:06:51.688Z,27.70
2017-07-18T11:09:19.127Z,27.90
2017-07-18T11:11:46.561Z,28.20
2017-07-18T11:14:14.000Z,27.80
2017-07-18T11:16:41.433Z,28.40
2017-07-18T11:19:08.863Z,28.50
2017-07-18T11:21:36.371Z,28.10
2017-07-18T11:24:03.813Z,28.80
2017-07-18T11:26:31.246Z,28.60
2017-07-18T11:28:58.673Z,28.10
2017-07-18T11:31:26.109Z,28.30
2017-07-18T11:33:53.545Z,28.60
2017-07-18T11:36:21.041Z,28.80
2017-07-18T11:38:49.229Z,29.00
2017-07-18T11:41:16.692Z,28.30
2017-07-18T11:43:44.124Z,28.90
2017-07-18T11:46:12.393Z,29.60
2017-07-18T11:48:39.821Z,29.10
2017-07-18T11:51:07.265Z,28.80
2017-07-18T11:53:34.711Z,28.70
2017-07-18T11:56:02.199Z,29.20
2017-07-18T11:58:29.641Z,29.40
2017-07-18T12:00:57.076Z,29.60
2017-07-18T12:03:24.530Z,29.80
2017-07-18T12:05:51.956Z,29.50
2017-07-18T12:08:19.406Z,29.20
2017-07-18T12:10:46.846Z,29.10
2017-07-18T12:13:14.289Z,29.10
2017-07-18T12:15:41.737Z,29.50
2017-07-18T12:18:09.172Z,29.00
2017-07-18T12:20:36.628Z,29.10
2017-07-18T12:23:04.075Z,29.50
2017-07-18T12:25:31.510Z,29.30
2017-07-18T12:27:58.947Z,29.50
2017-07-18T12:30:26.405Z,29.00
2017-07-18T12:32:53.962Z,29.50
2017-07-18T12:35:22.161Z,29.70
2017-07-18T12:37:49.668Z,29.60
2017-07-18T12:40:17.094Z,29.00
2017-07-18T12:42:44.536Z,28.90
2017-07-18T12:45:12.047Z,29.10
2017-07-18T12:47:39.519Z,29.00
2017-07-18T12:50:06.965Z,29.20
2017-07-18T12:52:34.405Z,29.10
2017-07-18T12:55:01.841Z,28.90
2017-07-18T12:57:29.269Z,29.10
2017-07-18T12:59:56.732Z,29.60
2017-07-18T13:02:24.161Z,29.40
2017-07-18T13:04:51.620Z,29.50
2017-07-18T13:07:19.059Z,29.40
2017-07-18T13:09:46.606Z,29.00
2017-07-18T13:12:14.041Z,28.90
2017-07-18T13:14:41.472Z,28.40
2017-07-18T13:17:08.912Z,28.70
2017-07-18T13:19:36.361Z,28.30
2017-07-18T13:22:03.798Z,28.10
2017-07-18T13:24:31.221Z,28.50
2017-07-18T13:26:58.673Z,28.60
2017-07-18T13:29:26.101Z,28.40
2017-07-18T13:31:53.539Z,28.20
2017-07-18T13:34:20.995Z,28.00
2017-07-18T13:36:48.415Z,27.90
2017-07-18T13:39:15.853Z,27.60
2017-07-18T13:41:43.283Z,28.00
2017-07-18T13:44:10.744Z,28.00
2017-07-18T13:46:39.212Z,28.00
2017-07-18T13:49:06.685Z,27.20
2017-07-18T13:51:34.124Z,27.60
2017-07-18T13:54:01.700Z,28.10
2017-07-18T13:56:29.228Z,28.80
2017-07-18T13:58:56.686Z,29.20
2017-07-18T14:01:25.241Z,29.10
2017-07-18T14:03:52.672Z,29.00
2017-07-18T14:06:20.096Z,29.10
2017-07-18T14:08:47.545Z,28.90
2017-07-18T14:11:15.036Z,28.80
2017-07-18T14:13:43.235Z,28.70
2017-07-18T14:16:10.682Z,29.30
2017-07-18T14:18:38.134Z,28.60
2017-07-18T14:21:06.187Z,27.70
2017-07-18T14:23:33.624Z,28.20
2017-07-18T14:26:01.141Z,27.50
2017-07-18T14:28:29.340Z,27.50
2017-07-18T14:30:56.782Z,27.50
2017-07-18T14:33:24.212Z,28.00
2017-07-18T14:35:51.690Z,27.30
2017-07-18T14:38:19.137Z,27.50
2017-07-18T14:40:47.354Z,27.60
2017-07-18T14:43:14.836Z,27.50
2017-07-18T14:45:42.273Z,27.70
2017-07-18T14:48:10.622Z,27.90
2017-07-18T14:53:11.953Z,28.00
2017-07-18T14:55:39.372Z,28.00
2017-07-18T14:58:06.808Z,27.90
2017-07-18T15:00:34.249Z,28.30
2017-07-18T15:03:01.678Z,27.90
2017-07-18T15:05:29.880Z,27.90
2017-07-18T15:07:57.366Z,27.90
2017-07-18T15:10:24.800Z,27.50
2017-07-18T15:12:52.237Z,27.50
2017-07-18T15:15:19.712Z,27.80
2017-07-18T15:17:47.146Z,27.30
2017-07-18T15:20:15.348Z,27.80
2017-07-18T15:22:42.905Z,27.20
2017-07-18T15:25:10.329Z,27.50
2017-07-18T15:27:37.760Z,28.20
2017-07-18T15:30:05.230Z,28.00
2017-07-18T15:32:33.483Z,27.90
2017-07-18T15:35:00.918Z,27.90
2017-07-18T15:37:28.373Z,27.50
2017-07-18T15:39:55.809Z,27.80
2017-07-18T15:42:23.250Z,27.80
2017-07-18T15:44:50.954Z,28.00
2017-07-18T15:47:19.148Z,27.30
2017-07-18T15:49:46.598Z,27.20
2017-07-18T15:52:14.037Z,27.60
2017-07-18T15:54:41.475Z,27.40
2017-07-18T15:57:08.914Z,28.10
2017-07-18T15:59:36.376Z,28.00
2017-07-18T16:02:03.813Z,28.00
2017-07-18T16:04:31.249Z,27.80
2017-07-18T16:06:58.814Z,27.70
2017-07-18T16:09:26.233Z,27.40
2017-07-18T16:11:54.108Z,27.80
2017-07-18T16:14:21.629Z,27.40
2017-07-18T16:16:49.064Z,27.60
2017-07-18T16:19:16.500Z,27.90
2017-07-18T16:21:43.937Z,27.70
2017-07-18T16:24:12.133Z,28.00
2017-07-18T16:26:39.559Z,27.90
2017-07-18T16:29:07.009Z,28.10
2017-07-18T16:31:34.449Z,27.90
2017-07-18T16:34:01.947Z,28.20
2017-07-18T16:36:29.373Z,28.30
2017-07-18T16:38:56.830Z,28.30
2017-07-18T16:41:24.265Z,28.40
2017-07-18T16:43:51.823Z,28.50
2017-07-18T16:46:19.928Z,28.60
2017-07-18T16:48:47.355Z,28.80
2017-07-18T16:51:14.857Z,28.80
2017-07-18T16:53:42.391Z,28.80
2017-07-18T16:56:09.842Z,28.80
2017-07-18T16:58:37.270Z,29.00
2017-07-18T17:01:04.713Z,29.30
2017-07-18T17:03:32.167Z,29.30
2017-07-18T17:05:59.624Z,29.50
2017-07-18T17:08:27.826Z,29.90
2017-07-18T17:10:55.260Z,29.40
2017-07-18T17:13:22.923Z,29.10
2017-07-18T17:15:50.352Z,28.80
2017-07-18T17:18:18.033Z,28.60
2017-07-18T17:20:45.472Z,28.50
2017-07-18T17:23:12.916Z,28.60
2017-07-18T17:25:40.359Z,28.50
2017-07-18T17:28:07.820Z,28.90
2017-07-18T17:30:35.252Z,29.10
2017-07-18T17:33:02.686Z,28.90
2017-07-18T17:35:30.259Z,28.80
2017-07-18T17:37:57.680Z,29.10
2017-07-18T17:40:25.116Z,29.40
2017-07-18T17:42:52.555Z,30.50
2017-07-18T17:45:19.994Z,30.00
2017-07-18T17:47:47.424Z,29.90
2017-07-18T17:50:14.861Z,29.80
2017-07-18T17:52:42.301Z,28.90
2017-07-18T17:55:09.733Z,28.80
2017-07-18T17:57:37.188Z,28.90
2017-07-18T18:00:04.691Z,29.20
2017-07-18T18:02:32.135Z,29.30
2017-07-18T18:04:59.565Z,29.10
2017-07-18T18:07:26.998Z,29.30
2017-07-18T18:09:54.427Z,29.50
2017-07-18T18:12:21.912Z,29.60
2017-07-18T18:14:50.120Z,29.30
2017-07-18T18:17:17.543Z,29.20
2017-07-18T18:19:44.991Z,29.50
2017-07-18T18:22:12.420Z,29.60
2017-07-18T18:24:39.934Z,29.80
2017-07-18T18:27:07.397Z,30.00
2017-07-18T18:29:35.612Z,29.80
2017-07-18T18:32:03.246Z,29.70
2017-07-18T18:34:30.689Z,30.00
2017-07-18T18:36:58.161Z,30.00
2017-07-18T18:39:25.589Z,30.20
2017-07-18T18:41:53.037Z,30.40
2017-07-18T18:44:20.479Z,30.50
2017-07-18T18:46:47.923Z,30.60
2017-07-18T18:49:15.443Z,30.60
2017-07-18T18:51:42.889Z,30.60
2017-07-18T18:54:10.412Z,30.80
2017-07-18T18:56:37.887Z,31.20
2017-07-18T18:59:05.377Z,31.10
2017-07-18T19:01:32.817Z,31.40
2017-07-18T19:04:01.062Z,32.00
2017-07-18T19:06:28.509Z,31.90
2017-07-18T19:08:56.745Z,33.30
2017-07-18T19:11:24.189Z,32.60
2017-07-18T19:13:51.612Z,32.90
2017-07-18T19:16:19.189Z,33.00
2017-07-18T19:18:46.621Z,33.20
2017-07-18T19:21:14.070Z,33.10
2017-07-18T19:23:41.521Z,33.50
2017-07-18T19:26:08.961Z,33.70
2017-07-18T19:28:36.414Z,33.90
2017-07-18T19:31:04.660Z,34.80
2017-07-18T19:33:32.108Z,34.90
2017-07-18T19:35:59.650Z,34.90
2017-07-18T19:38:27.098Z,35.00
2017-07-18T19:40:54.533Z,35.40
2017-07-18T19:43:21.964Z,36.10
2017-07-18T19:45:49.400Z,36.60
2017-07-18T19:48:16.843Z,37.20
2017-07-18T19:50:44.273Z,37.70
2017-07-18T19:53:11.714Z,38.40
2017-07-18T19:55:39.159Z,39.50
2017-07-18T19:58:06.586Z,39.50
2017-07-18T20:00:34.057Z,39.30
2017-07-18T20:03:01.633Z,38.90
2017-07-18T20:05:29.152Z,37.60
2017-07-18T20:07:56.602Z,37.40
2017-07-18T20:10:24.040Z,37.40
2017-07-18T20:12:51.489Z,37.60
2017-07-18T20:15:18.966Z,37.60
2017-07-18T20:17:46.477Z,37.80
2017-07-18T20:20:13.913Z,38.00
2017-07-18T20:22:41.348Z,38.10
2017-07-18T20:25:08.819Z,38.20
2017-07-18T20:27:36.258Z,38.20
2017-07-18T20:30:03.763Z,38.10
2017-07-18T20:32:31.209Z,38.20
2017-07-18T20:34:58.648Z,38.20
2017-07-18T20:37:26.299Z,38.50
2017-07-18T20:39:53.788Z,38.70
2017-07-18T20:42:22.080Z,39.50
2017-07-18T20:44:49.647Z,39.40
2017-07-18T20:47:17.109Z,39.50
2017-07-18T20:49:44.536Z,39.80
2017-07-18T20:52:11.976Z,40.20
2017-07-18T20:54:39.412Z,40.50
2017-07-18T20:57:06.878Z,40.80
2017-07-18T20:59:34.322Z,41.10
2017-07-18T21:02:01.781Z,41.60
2017-07-18T21:04:29.864Z,41.90
2017-07-18T21:06:57.286Z,42.40
2017-07-18T21:09:25.492Z,43.10
2017-07-18T21:11:52.924Z,42.70
2017-07-18T21:14:20.408Z,42.70
2017-07-18T21:16:47.832Z,42.90
2017-07-18T21:19:15.265Z,43.10
2017-07-18T21:21:42.705Z,43.20
2017-07-18T21:24:10.127Z,43.50
2017-07-18T21:26:37.672Z,43.70
2017-07-18T21:29:05.101Z,43.80
2017-07-18T21:31:33.315Z,43.90
2017-07-18T21:34:00.753Z,43.80
2017-07-18T21:36:28.198Z,44.10
2017-07-18T21:38:55.655Z,43.90
2017-07-18T21:41:23.105Z,44.00
2017-07-18T21:43:50.548Z,44.30
2017-07-18T21:46:18.086Z,44.30
2017-07-18T21:48:45.508Z,44.30
2017-07-18T21:51:12.953Z,44.20
2017-07-18T21:53:40.423Z,44.20
2017-07-18T21:56:07.965Z,44.00
2017-07-18T21:58:35.409Z,44.00
2017-07-18T22:01:02.944Z,44.00
2017-07-18T22:03:30.393Z,43.90
2017-07-18T22:05:58.108Z,43.70
2017-07-18T22:08:25.533Z,44.30
2017-07-18T22:10:52.980Z,43.60
2017-07-18T22:13:20.417Z,43.70
2017-07-18T22:15:47.854Z,43.90
2017-07-18T22:18:15.298Z,43.80
2017-07-18T22:20:42.733Z,43.90
2017-07-18T22:23:10.175Z,43.70
2017-07-18T22:25:38.369Z,43.50
2017-07-18T22:28:05.858Z,43.50
2017-07-18T22:30:33.281Z,44.00
2017-07-18T22:33:00.721Z,43.20
2017-07-18T22:35:28.158Z,43.40
2017-07-18T22:37:55.598Z,43.10
2017-07-18T22:40:23.031Z,43.20
2017-07-18T22:42:50.473Z,42.90
2017-07-18T22:45:17.908Z,43.20
2017-07-18T22:47:45.361Z,43.20
2017-07-18T22:50:12.784Z,43.10
2017-07-18T22:52:40.259Z,43.10
2017-07-18T22:55:07.685Z,43.40
2017-07-18T22:57:35.111Z,43.70
2017-07-18T23:00:02.549Z,43.80
2017-07-18T23:02:29.990Z,44.00
2017-07-18T23:04:57.471Z,43.80
2017-07-18T23:07:24.914Z,44.10
2017-07-18T23:09:52.342Z,43.60
2017-07-18T23:12:19.770Z,43.70
2017-07-18T23:14:47.211Z,43.70
2017-07-18T23:17:14.657Z,43.70
2017-07-18T23:19:42.092Z,43.70
2017-07-18T23:22:09.525Z,43.70
2017-07-18T23:24:36.960Z,43.60
2017-07-18T23:27:04.382Z,43.70
2017-07-18T23:29:31.832Z,44.10
2017-07-18T23:32:00.021Z,45.00
2017-07-18T23:34:27.455Z,45.00
2017-07-18T23:36:54.888Z,44.90
2017-07-18T23:39:22.332Z,45.10
2017-07-18T23:41:49.764Z,45.00
2017-07-18T23:44:17.192Z,44.90
2017-07-18T23:46:45.401Z,44.70
2017-07-18T23:49:12.850Z,44.70
2017-07-18T23:51:40.259Z,44.90
2017-07-18T23:54:07.761Z,45.00
2017-07-18T23:56:35.204Z,45.50
2017-07-18T23:59:02.657Z,45.80
